sensor_id;sensor_type;location;lat;lon;timestamp;pressure;altitude;pressure_sealevel;temperature;humidity
23281;BME280;11809;56.390;-3.266;2023-07-29T00:02:13;99484.75;;;20.55;66.16
23281;BME280;11809;56.390;-3.266;2023-07-29T00:04:40;99467.22;;;20.52;66.08
23281;BME280;11809;56.390;-3.266;2023-07-29T00:07:08;99487.03;;;20.50;66.20
23281;BME280;11809;56.390;-3.266;2023-07-29T00:09:35;99483.53;;;20.49;66.45
23281;BME280;11809;56.390;-3.266;2023-07-29T00:12:02;99483.69;;;20.48;66.09
23281;BME280;11809;56.390;-3.266;2023-07-29T00:14:30;99482.00;;;20.47;66.09
23281;BME280;11809;56.390;-3.266;2023-07-29T00:16:59;99477.81;;;20.44;66.28
23281;BME280;11809;56.390;-3.266;2023-07-29T00:19:26;99474.28;;;20.44;66.21
23281;BME280;11809;56.390;-3.266;2023-07-29T00:21:55;99468.56;;;20.39;66.23
23281;BME280;11809;56.390;-3.266;2023-07-29T00:24:22;99471.13;;;20.40;66.38
23281;BME280;11809;56.390;-3.266;2023-07-29T00:26:50;99467.78;;;20.38;66.36
23281;BME280;11809;56.390;-3.266;2023-07-29T00:29:17;99459.91;;;20.37;66.37
23281;BME280;11809;56.390;-3.266;2023-07-29T00:31:45;99452.06;;;20.35;66.06
23281;BME280;11809;56.390;-3.266;2023-07-29T00:34:12;99455.53;;;20.36;66.16
23281;BME280;11809;56.390;-3.266;2023-07-29T00:36:44;99452.19;;;20.34;65.95
23281;BME280;11809;56.390;-3.266;2023-07-29T00:39:11;99453.19;;;20.33;65.85
23281;BME280;11809;56.390;-3.266;2023-07-29T00:41:39;99448.00;;;20.31;66.07
23281;BME280;11809;56.390;-3.266;2023-07-29T00:44:07;99450.84;;;20.30;66.22
23281;BME280;11809;56.390;-3.266;2023-07-29T00:46:36;99448.47;;;20.27;66.37
23281;BME280;11809;56.390;-3.266;2023-07-29T00:49:05;99451.13;;;20.27;66.30
23281;BME280;11809;56.390;-3.266;2023-07-29T00:51:32;99448.47;;;20.27;66.11
23281;BME280;11809;56.390;-3.266;2023-07-29T00:54:00;99439.78;;;20.25;65.96
23281;BME280;11809;56.390;-3.266;2023-07-29T00:56:27;99439.78;;;20.25;66.12
23281;BME280;11809;56.390;-3.266;2023-07-29T00:58:54;99432.75;;;20.24;66.00
23281;BME280;11809;56.390;-3.266;2023-07-29T01:01:25;99428.38;;;20.23;66.07
23281;BME280;11809;56.390;-3.266;2023-07-29T01:03:53;99425.69;;;20.23;65.78
23281;BME280;11809;56.390;-3.266;2023-07-29T01:12:06;99424.34;;;20.19;66.06
23281;BME280;11809;56.390;-3.266;2023-07-29T01:17:48;99421.81;;;20.17;66.09
23281;BME280;11809;56.390;-3.266;2023-07-29T01:20:18;99419.31;;;20.16;66.26
23281;BME280;11809;56.390;-3.266;2023-07-29T01:22:48;99420.28;;;20.15;65.98
23281;BME280;11809;56.390;-3.266;2023-07-29T01:25:15;99414.28;;;20.13;66.05
23281;BME280;11809;56.390;-3.266;2023-07-29T01:27:45;99416.09;;;20.12;66.01
23281;BME280;11809;56.390;-3.266;2023-07-29T01:30:13;99412.63;;;20.12;66.04
23281;BME280;11809;56.390;-3.266;2023-07-29T01:32:46;99413.59;;;20.11;65.85
23281;BME280;11809;56.390;-3.266;2023-07-29T01:35:36;99409.41;;;20.08;65.88
23281;BME280;11809;56.390;-3.266;2023-07-29T01:38:20;99414.56;;;20.10;66.07
23281;BME280;11809;56.390;-3.266;2023-07-29T01:40:49;99415.72;;;20.07;65.71
23281;BME280;11809;56.390;-3.266;2023-07-29T01:43:18;99408.72;;;20.06;66.16
23281;BME280;11809;56.390;-3.266;2023-07-29T01:45:50;99416.84;;;20.05;65.84
23281;BME280;11809;56.390;-3.266;2023-07-29T01:48:18;99410.66;;;20.04;66.02
23281;BME280;11809;56.390;-3.266;2023-07-29T01:50:45;99416.00;;;20.04;65.89
23281;BME280;11809;56.390;-3.266;2023-07-29T01:53:12;99406.34;;;20.03;65.86
23281;BME280;11809;56.390;-3.266;2023-07-29T01:55:41;99403.00;;;20.01;66.12
23281;BME280;11809;56.390;-3.266;2023-07-29T01:58:08;99407.50;;;20.01;66.11
23281;BME280;11809;56.390;-3.266;2023-07-29T02:00:36;99405.81;;;20.00;65.85
23281;BME280;11809;56.390;-3.266;2023-07-29T02:03:03;99408.63;;;19.98;66.00
23281;BME280;11809;56.390;-3.266;2023-07-29T02:05:30;99396.97;;;19.99;65.70
23281;BME280;11809;56.390;-3.266;2023-07-29T02:07:57;99399.78;;;19.98;65.85
23281;BME280;11809;56.390;-3.266;2023-07-29T02:10:24;99393.63;;;19.97;66.01
23281;BME280;11809;56.390;-3.266;2023-07-29T02:12:51;99396.44;;;19.95;66.00
23281;BME280;11809;56.390;-3.266;2023-07-29T02:15:18;99401.78;;;19.95;65.76
23281;BME280;11809;56.390;-3.266;2023-07-29T02:17:45;99395.59;;;19.95;65.69
23281;BME280;11809;56.390;-3.266;2023-07-29T02:20:12;99394.75;;;19.94;65.58
23281;BME280;11809;56.390;-3.266;2023-07-29T02:22:40;99391.25;;;19.94;65.81
23281;BME280;11809;56.390;-3.266;2023-07-29T02:25:07;99385.06;;;19.93;65.73
23281;BME280;11809;56.390;-3.266;2023-07-29T02:27:34;99386.06;;;19.92;65.58
23281;BME280;11809;56.390;-3.266;2023-07-29T02:30:02;99384.38;;;19.91;65.92
23281;BME280;11809;56.390;-3.266;2023-07-29T02:32:29;99383.53;;;19.91;65.80
23281;BME280;11809;56.390;-3.266;2023-07-29T02:34:56;99377.41;;;19.90;65.69
23281;BME280;11809;56.390;-3.266;2023-07-29T02:37:23;99380.19;;;19.89;65.92
23281;BME280;11809;56.390;-3.266;2023-07-29T02:39:50;99376.69;;;19.88;65.82
23281;BME280;11809;56.390;-3.266;2023-07-29T02:42:17;99377.69;;;19.87;65.81
23281;BME280;11809;56.390;-3.266;2023-07-29T02:44:45;99368.97;;;19.85;65.82
23281;BME280;11809;56.390;-3.266;2023-07-29T02:47:12;99358.31;;;19.85;66.03
23281;BME280;11809;56.390;-3.266;2023-07-29T02:49:39;99368.16;;;19.85;65.79
23281;BME280;11809;56.390;-3.266;2023-07-29T02:52:06;99356.66;;;19.84;65.91
23281;BME280;11809;56.390;-3.266;2023-07-29T02:54:33;99356.66;;;19.84;65.80
23281;BME280;11809;56.390;-3.266;2023-07-29T02:57:00;99353.31;;;19.82;65.86
23281;BME280;11809;56.390;-3.266;2023-07-29T02:59:27;99348.78;;;19.83;65.81
23281;BME280;11809;56.390;-3.266;2023-07-29T03:01:54;99347.97;;;19.82;66.08
23281;BME280;11809;56.390;-3.266;2023-07-29T03:04:21;99342.94;;;19.79;65.84
23281;BME280;11809;56.390;-3.266;2023-07-29T03:06:50;99338.47;;;19.80;65.85
23281;BME280;11809;56.390;-3.266;2023-07-29T03:09:17;99336.78;;;19.79;65.81
23281;BME280;11809;56.390;-3.266;2023-07-29T03:11:44;99335.94;;;19.78;65.72
23281;BME280;11809;56.390;-3.266;2023-07-29T03:14:11;99342.25;;;19.77;65.87
23281;BME280;11809;56.390;-3.266;2023-07-29T03:16:38;99344.09;;;19.77;66.05
23281;BME280;11809;56.390;-3.266;2023-07-29T03:19:05;99329.91;;;19.76;66.02
23281;BME280;11809;56.390;-3.266;2023-07-29T03:21:33;99338.91;;;19.75;65.93
23281;BME280;11809;56.390;-3.266;2023-07-29T03:24:00;99339.06;;;19.74;65.52
23281;BME280;11809;56.390;-3.266;2023-07-29T03:26:27;99338.91;;;19.75;66.07
23281;BME280;11809;56.390;-3.266;2023-07-29T03:28:54;99337.25;;;19.74;65.70
23281;BME280;11809;56.390;-3.266;2023-07-29T03:31:21;99333.06;;;19.72;65.89
23281;BME280;11809;56.390;-3.266;2023-07-29T03:33:48;99334.56;;;19.74;65.71
23281;BME280;11809;56.390;-3.266;2023-07-29T03:36:15;99328.53;;;19.72;66.02
23281;BME280;11809;56.390;-3.266;2023-07-29T03:38:43;99331.34;;;19.71;65.78
23281;BME280;11809;56.390;-3.266;2023-07-29T03:41:11;99341.34;;;19.69;66.04
23281;BME280;11809;56.390;-3.266;2023-07-29T03:43:38;99341.19;;;19.70;66.05
23281;BME280;11809;56.390;-3.266;2023-07-29T03:46:06;99331.50;;;19.69;65.74
23281;BME280;11809;56.390;-3.266;2023-07-29T03:48:37;99336.00;;;19.69;65.94
23281;BME280;11809;56.390;-3.266;2023-07-29T03:51:04;99328.16;;;19.67;65.90
23281;BME280;11809;56.390;-3.266;2023-07-29T03:53:31;99337.84;;;19.68;65.66
23281;BME280;11809;56.390;-3.266;2023-07-29T03:55:58;99329.84;;;19.68;65.94
23281;BME280;11809;56.390;-3.266;2023-07-29T03:58:26;99324.63;;;19.67;65.80
23281;BME280;11809;56.390;-3.266;2023-07-29T04:00:53;99327.31;;;19.67;65.78
23281;BME280;11809;56.390;-3.266;2023-07-29T04:03:20;99326.50;;;19.66;65.48
23281;BME280;11809;56.390;-3.266;2023-07-29T04:05:47;99320.31;;;19.66;65.95
23281;BME280;11809;56.390;-3.266;2023-07-29T04:08:14;99319.47;;;19.65;65.71
23281;BME280;11809;56.390;-3.266;2023-07-29T04:10:41;99323.97;;;19.65;65.92
23281;BME280;11809;56.390;-3.266;2023-07-29T04:13:08;99321.47;;;19.63;65.52
23281;BME280;11809;56.390;-3.266;2023-07-29T04:15:35;99324.81;;;19.65;65.64
23281;BME280;11809;56.390;-3.266;2023-07-29T04:18:02;99316.97;;;19.64;65.67
23281;BME280;11809;56.390;-3.266;2023-07-29T04:20:29;99316.13;;;19.63;65.85
23281;BME280;11809;56.390;-3.266;2023-07-29T04:22:56;99313.59;;;19.62;65.68
23281;BME280;11809;56.390;-3.266;2023-07-29T04:25:23;99315.44;;;19.61;65.88
23281;BME280;11809;56.390;-3.266;2023-07-29T04:27:50;99313.75;;;19.60;65.72
23281;BME280;11809;56.390;-3.266;2023-07-29T04:30:17;99308.72;;;19.57;65.81
23281;BME280;11809;56.390;-3.266;2023-07-29T04:32:44;99313.75;;;19.60;65.64
23281;BME280;11809;56.390;-3.266;2023-07-29T04:35:15;99312.06;;;19.59;65.78
23281;BME280;11809;56.390;-3.266;2023-07-29T04:37:42;99319.09;;;19.60;65.76
23281;BME280;11809;56.390;-3.266;2023-07-29T04:40:09;99322.72;;;19.59;65.57
23281;BME280;11809;56.390;-3.266;2023-07-29T04:42:37;99316.41;;;19.60;65.77
23281;BME280;11809;56.390;-3.266;2023-07-29T04:45:05;99318.25;;;19.60;65.71
23281;BME280;11809;56.390;-3.266;2023-07-29T04:47:32;99313.88;;;19.59;65.57
23281;BME280;11809;56.390;-3.266;2023-07-29T04:49:59;99319.38;;;19.57;65.78
23281;BME280;11809;56.390;-3.266;2023-07-29T04:52:26;99322.91;;;19.58;65.81
23281;BME280;11809;56.390;-3.266;2023-07-29T04:54:53;99320.38;;;19.56;65.98
23281;BME280;11809;56.390;-3.266;2023-07-29T04:57:20;99316.72;;;19.57;65.76
23281;BME280;11809;56.390;-3.266;2023-07-29T04:59:47;99310.53;;;19.57;65.76
23281;BME280;11809;56.390;-3.266;2023-07-29T05:02:14;99309.88;;;19.55;65.53
23281;BME280;11809;56.390;-3.266;2023-07-29T05:04:42;99316.03;;;19.55;65.52
23281;BME280;11809;56.390;-3.266;2023-07-29T05:07:09;99314.34;;;19.54;66.03
23281;BME280;11809;56.390;-3.266;2023-07-29T05:09:36;99320.69;;;19.53;66.10
23281;BME280;11809;56.390;-3.266;2023-07-29T05:12:03;99305.50;;;19.54;65.84
23281;BME280;11809;56.390;-3.266;2023-07-29T05:14:30;99311.00;;;19.52;66.07
23281;BME280;11809;56.390;-3.266;2023-07-29T05:16:57;99322.66;;;19.51;66.18
23281;BME280;11809;56.390;-3.266;2023-07-29T05:19:24;99323.50;;;19.52;65.84
23281;BME280;11809;56.390;-3.266;2023-07-29T05:21:51;99327.97;;;19.51;65.76
23281;BME280;11809;56.390;-3.266;2023-07-29T05:24:18;99330.63;;;19.51;65.55
23281;BME280;11809;56.390;-3.266;2023-07-29T05:26:45;99327.16;;;19.51;65.49
23281;BME280;11809;56.390;-3.266;2023-07-29T05:29:12;99337.81;;;19.51;65.43
23281;BME280;11809;56.390;-3.266;2023-07-29T05:31:40;99334.31;;;19.50;65.79
23281;BME280;11809;56.390;-3.266;2023-07-29T05:34:07;99329.97;;;19.49;65.80
23281;BME280;11809;56.390;-3.266;2023-07-29T05:36:34;99334.44;;;19.49;65.61
23281;BME280;11809;56.390;-3.266;2023-07-29T05:39:01;99328.28;;;19.48;65.77
23281;BME280;11809;56.390;-3.266;2023-07-29T05:41:28;99332.78;;;19.48;65.57
23281;BME280;11809;56.390;-3.266;2023-07-29T05:43:56;99334.59;;;19.47;65.81
23281;BME280;11809;56.390;-3.266;2023-07-29T05:46:23;99330.25;;;19.46;65.70
23281;BME280;11809;56.390;-3.266;2023-07-29T05:48:50;99333.94;;;19.45;65.82
23281;BME280;11809;56.390;-3.266;2023-07-29T05:51:17;99328.88;;;19.42;65.87
23281;BME280;11809;56.390;-3.266;2023-07-29T05:53:44;99320.59;;;19.45;65.57
23281;BME280;11809;56.390;-3.266;2023-07-29T05:56:11;99313.19;;;19.39;66.02
23281;BME280;11809;56.390;-3.266;2023-07-29T05:58:38;99307.88;;;19.39;65.83
23281;BME280;11809;56.390;-3.266;2023-07-29T06:01:05;99310.38;;;19.41;65.76
23281;BME280;11809;56.390;-3.266;2023-07-29T06:03:32;99306.88;;;19.40;65.81
23281;BME280;11809;56.390;-3.266;2023-07-29T06:06:00;99305.34;;;19.38;66.11
23281;BME280;11809;56.390;-3.266;2023-07-29T06:08:27;99314.31;;;19.36;65.95
23281;BME280;11809;56.390;-3.266;2023-07-29T06:10:55;99314.31;;;19.36;65.81
23281;BME280;11809;56.390;-3.266;2023-07-29T06:13:22;99313.47;;;19.36;66.02
23281;BME280;11809;56.390;-3.266;2023-07-29T06:15:49;99309.81;;;19.37;66.11
23281;BME280;11809;56.390;-3.266;2023-07-29T06:18:17;99312.47;;;19.37;65.92
23281;BME280;11809;56.390;-3.266;2023-07-29T06:20:44;99307.28;;;19.35;66.33
23281;BME280;11809;56.390;-3.266;2023-07-29T06:23:11;99302.13;;;19.34;66.07
23281;BME280;11809;56.390;-3.266;2023-07-29T06:25:38;99313.75;;;19.33;65.96
23281;BME280;11809;56.390;-3.266;2023-07-29T06:28:05;99315.75;;;19.31;66.27
23281;BME280;11809;56.390;-3.266;2023-07-29T06:30:32;99314.06;;;19.30;66.35
23281;BME280;11809;56.390;-3.266;2023-07-29T06:33:00;99314.88;;;19.30;66.24
23281;BME280;11809;56.390;-3.266;2023-07-29T06:35:27;99316.72;;;19.30;66.27
23281;BME280;11809;56.390;-3.266;2023-07-29T06:37:54;99319.38;;;19.30;66.35
23281;BME280;11809;56.390;-3.266;2023-07-29T06:40:21;99319.66;;;19.27;66.17
23281;BME280;11809;56.390;-3.266;2023-07-29T06:42:48;99322.78;;;19.22;66.03
23281;BME280;11809;56.390;-3.266;2023-07-29T06:45:15;99313.94;;;19.22;66.09
23281;BME280;11809;56.390;-3.266;2023-07-29T06:47:42;99323.91;;;19.20;66.34
23281;BME280;11809;56.390;-3.266;2023-07-29T06:50:10;99321.09;;;19.21;66.59
23281;BME280;11809;56.390;-3.266;2023-07-29T06:52:37;99324.47;;;19.23;66.31
23281;BME280;11809;56.390;-3.266;2023-07-29T06:55:05;99316.31;;;19.25;66.41
23281;BME280;11809;56.390;-3.266;2023-07-29T06:57:32;99310.88;;;19.26;66.80
23281;BME280;11809;56.390;-3.266;2023-07-29T06:59:59;99318.41;;;19.31;67.03
23281;BME280;11809;56.390;-3.266;2023-07-29T07:02:26;99318.25;;;19.32;67.04
23281;BME280;11809;56.390;-3.266;2023-07-29T07:04:53;99316.28;;;19.34;66.99
23281;BME280;11809;56.390;-3.266;2023-07-29T07:07:20;99318.25;;;19.32;67.02
23281;BME280;11809;56.390;-3.266;2023-07-29T07:09:47;99319.09;;;19.33;67.05
23281;BME280;11809;56.390;-3.266;2023-07-29T07:12:14;99320.72;;;19.44;67.10
23281;BME280;11809;56.390;-3.266;2023-07-29T07:14:41;99318.63;;;19.47;67.20
23281;BME280;11809;56.390;-3.266;2023-07-29T07:17:09;99328.28;;;19.48;67.10
23281;BME280;11809;56.390;-3.266;2023-07-29T07:19:39;99326.31;;;19.50;67.39
23281;BME280;11809;56.390;-3.266;2023-07-29T07:22:06;99321.00;;;19.50;67.34
23281;BME280;11809;56.390;-3.266;2023-07-29T07:24:33;99324.34;;;19.52;67.38
23281;BME280;11809;56.390;-3.266;2023-07-29T07:27:01;99317.31;;;19.51;67.38
23281;BME280;11809;56.390;-3.266;2023-07-29T07:29:28;99323.34;;;19.53;67.34
23281;BME280;11809;56.390;-3.266;2023-07-29T07:31:57;99326.41;;;19.58;67.22
23281;BME280;11809;56.390;-3.266;2023-07-29T07:34:24;99328.06;;;19.59;67.37
23281;BME280;11809;56.390;-3.266;2023-07-29T07:36:51;99325.78;;;19.64;67.08
23281;BME280;11809;56.390;-3.266;2023-07-29T07:39:18;99325.47;;;19.67;67.09
23281;BME280;11809;56.390;-3.266;2023-07-29T07:41:46;99327.09;;;19.60;67.18
23281;BME280;11809;56.390;-3.266;2023-07-29T07:44:13;99330.44;;;19.62;67.25
23281;BME280;11809;56.390;-3.266;2023-07-29T07:46:42;99330.72;;;19.59;67.37
23281;BME280;11809;56.390;-3.266;2023-07-29T07:49:09;99315.59;;;19.60;67.12
23281;BME280;11809;56.390;-3.266;2023-07-29T07:51:36;99325.41;;;19.59;67.53
23281;BME280;11809;56.390;-3.266;2023-07-29T07:54:04;99327.09;;;19.60;67.06
23281;BME280;11809;56.390;-3.266;2023-07-29T07:56:31;99334.09;;;19.61;66.79
23281;BME280;11809;56.390;-3.266;2023-07-29T07:58:58;99333.38;;;19.59;67.10
23281;BME280;11809;56.390;-3.266;2023-07-29T08:01:25;99334.09;;;19.61;66.91
23281;BME280;11809;56.390;-3.266;2023-07-29T08:03:52;99331.94;;;19.65;67.00
23281;BME280;11809;56.390;-3.266;2023-07-29T08:06:19;99341.34;;;19.69;66.68
23281;BME280;11809;56.390;-3.266;2023-07-29T08:08:46;99345.81;;;19.68;66.79
23281;BME280;11809;56.390;-3.266;2023-07-29T08:11:13;99354.81;;;19.67;67.03
23281;BME280;11809;56.390;-3.266;2023-07-29T08:13:40;99347.81;;;19.66;66.81
23281;BME280;11809;56.390;-3.266;2023-07-29T08:16:07;99346.81;;;19.67;67.03
23281;BME280;11809;56.390;-3.266;2023-07-29T08:18:35;99346.97;;;19.66;66.79
23281;BME280;11809;56.390;-3.266;2023-07-29T08:21:02;99345.81;;;19.68;66.77
23281;BME280;11809;56.390;-3.266;2023-07-29T08:23:34;99339.50;;;19.69;66.74
23281;BME280;11809;56.390;-3.266;2023-07-29T08:26:03;99334.88;;;19.71;66.64
23281;BME280;11809;56.390;-3.266;2023-07-29T08:28:36;99319.25;;;19.76;66.53
23281;BME280;11809;56.390;-3.266;2023-07-29T08:31:04;99328.78;;;19.79;66.32
23281;BME280;11809;56.390;-3.266;2023-07-29T08:33:32;99320.19;;;19.85;65.99
23281;BME280;11809;56.390;-3.266;2023-07-29T08:36:03;99324.66;;;19.84;66.38
23281;BME280;11809;56.390;-3.266;2023-07-29T08:38:30;99331.34;;;19.88;66.16
23281;BME280;11809;56.390;-3.266;2023-07-29T08:41:19;99324.88;;;19.91;65.76
23281;BME280;11809;56.390;-3.266;2023-07-29T08:44:12;99330.75;;;19.94;65.83
23281;BME280;11809;56.390;-3.266;2023-07-29T08:46:39;99331.22;;;19.90;63.93
23281;BME280;11809;56.390;-3.266;2023-07-29T08:49:07;99330.38;;;19.89;63.83
23281;BME280;11809;56.390;-3.266;2023-07-29T08:51:36;99331.22;;;19.90;62.83
23281;BME280;11809;56.390;-3.266;2023-07-29T08:54:04;99334.41;;;19.93;63.07
23281;BME280;11809;56.390;-3.266;2023-07-29T08:56:31;99318.09;;;19.96;61.99
23281;BME280;11809;56.390;-3.266;2023-07-29T08:58:59;99329.47;;;19.99;61.66
23281;BME280;11809;56.390;-3.266;2023-07-29T09:01:29;99322.81;;;20.03;62.01
23281;BME280;11809;56.390;-3.266;2023-07-29T09:03:57;99323.56;;;20.13;61.26
23281;BME280;11809;56.390;-3.266;2023-07-29T09:06:25;99323.09;;;20.17;60.50
23281;BME280;11809;56.390;-3.266;2023-07-29T09:08:55;99324.88;;;20.26;60.06
23281;BME280;11809;56.390;-3.266;2023-07-29T09:11:25;99321.75;;;20.31;60.59
23281;BME280;11809;56.390;-3.266;2023-07-29T09:13:53;99326.78;;;20.34;61.37
23281;BME280;11809;56.390;-3.266;2023-07-29T09:16:21;99326.63;;;20.35;61.18
23281;BME280;11809;56.390;-3.266;2023-07-29T09:18:49;99331.50;;;20.40;60.30
23281;BME280;11809;56.390;-3.266;2023-07-29T09:21:25;99341.88;;;20.43;60.19
23281;BME280;11809;56.390;-3.266;2023-07-29T09:23:54;99334.16;;;20.40;59.25
23281;BME280;11809;56.390;-3.266;2023-07-29T09:26:22;99328.16;;;20.38;58.58
23281;BME280;11809;56.390;-3.266;2023-07-29T09:28:58;99327.50;;;20.44;58.75
23281;BME280;11809;56.390;-3.266;2023-07-29T09:31:26;99323.56;;;20.48;60.03
23281;BME280;11809;56.390;-3.266;2023-07-29T09:33:58;99315.75;;;20.54;59.72
23281;BME280;11809;56.390;-3.266;2023-07-29T09:36:27;99320.31;;;20.62;59.03
23281;BME280;11809;56.390;-3.266;2023-07-29T09:38:58;99309.66;;;20.62;59.99
23281;BME280;11809;56.390;-3.266;2023-07-29T09:41:29;99323.97;;;20.61;60.17
23281;BME280;11809;56.390;-3.266;2023-07-29T09:44:02;99326.47;;;20.63;59.85
23281;BME280;11809;56.390;-3.266;2023-07-29T09:46:37;99321.53;;;20.68;60.70
23281;BME280;11809;56.390;-3.266;2023-07-29T09:49:07;99317.72;;;20.70;60.61
23281;BME280;11809;56.390;-3.266;2023-07-29T09:51:39;99332.22;;;20.68;60.69
23281;BME280;11809;56.390;-3.266;2023-07-29T09:54:07;99313.97;;;20.63;60.49
23281;BME280;11809;56.390;-3.266;2023-07-29T09:56:41;99314.94;;;20.54;61.03
23281;BME280;11809;56.390;-3.266;2023-07-29T09:59:10;99315.38;;;20.49;60.90
23281;BME280;11809;56.390;-3.266;2023-07-29T10:01:39;99318.69;;;20.43;61.29
23281;BME280;11809;56.390;-3.266;2023-07-29T10:04:08;99318.84;;;20.42;61.16
23281;BME280;11809;56.390;-3.266;2023-07-29T10:06:39;99312.47;;;20.35;61.37
23281;BME280;11809;56.390;-3.266;2023-07-29T10:09:07;99318.63;;;20.35;61.71
23281;BME280;11809;56.390;-3.266;2023-07-29T10:11:35;99315.13;;;20.35;61.68
23281;BME280;11809;56.390;-3.266;2023-07-29T10:14:03;99316.38;;;20.48;61.14
23281;BME280;11809;56.390;-3.266;2023-07-29T10:16:36;99322.41;;;20.50;58.63
23281;BME280;11809;56.390;-3.266;2023-07-29T10:19:07;99313.06;;;20.54;56.96
23281;BME280;11809;56.390;-3.266;2023-07-29T10:21:38;99299.59;;;20.56;56.87
23281;BME280;11809;56.390;-3.266;2023-07-29T10:24:09;99315.97;;;20.61;56.51
23281;BME280;11809;56.390;-3.266;2023-07-29T10:26:45;99316.31;;;20.66;56.14
23281;BME280;11809;56.390;-3.266;2023-07-29T10:29:14;99309.84;;;20.69;59.66
23281;BME280;11809;56.390;-3.266;2023-07-29T10:31:45;99314.69;;;20.73;60.62
23281;BME280;11809;56.390;-3.266;2023-07-29T10:34:13;99306.53;;;20.75;60.94
23281;BME280;11809;56.390;-3.266;2023-07-29T10:36:41;99301.88;;;20.77;60.99
23281;BME280;11809;56.390;-3.266;2023-07-29T10:39:09;99315.09;;;20.78;60.75
23281;BME280;11809;56.390;-3.266;2023-07-29T10:41:57;99309.75;;;20.78;60.92
23281;BME280;11809;56.390;-3.266;2023-07-29T10:47:13;99310.78;;;20.85;62.00
23281;BME280;11809;56.390;-3.266;2023-07-29T10:49:45;99307.94;;;20.87;62.27
23281;BME280;11809;56.390;-3.266;2023-07-29T10:52:28;99290.44;;;20.92;62.59
23281;BME280;11809;56.390;-3.266;2023-07-29T10:54:55;99301.13;;;20.92;62.86
23281;BME280;11809;56.390;-3.266;2023-07-29T10:57:36;99306.81;;;20.97;62.86
23281;BME280;11809;56.390;-3.266;2023-07-29T11:00:04;99302.50;;;20.96;62.35
23281;BME280;11809;56.390;-3.266;2023-07-29T11:02:36;99289.97;;;20.97;62.53
23281;BME280;11809;56.390;-3.266;2023-07-29T11:05:15;99298.44;;;20.92;62.49
23281;BME280;11809;56.390;-3.266;2023-07-29T11:07:47;99293.28;;;20.91;62.11
23281;BME280;11809;56.390;-3.266;2023-07-29T11:10:15;99300.44;;;20.90;62.11
23281;BME280;11809;56.390;-3.266;2023-07-29T11:17:55;99284.69;;;20.79;62.10
23281;BME280;11809;56.390;-3.266;2023-07-29T11:20:27;99297.38;;;20.77;62.27
23281;BME280;11809;56.390;-3.266;2023-07-29T11:22:55;99297.84;;;20.73;62.46
23281;BME280;11809;56.390;-3.266;2023-07-29T11:25:24;99295.50;;;20.70;62.40
23281;BME280;11809;56.390;-3.266;2023-07-29T11:27:53;99289.50;;;20.68;62.08
23281;BME280;11809;56.390;-3.266;2023-07-29T11:30:20;99289.31;;;20.69;62.23
23281;BME280;11809;56.390;-3.266;2023-07-29T11:32:49;99295.63;;;20.68;62.19
23281;BME280;11809;56.390;-3.266;2023-07-29T11:35:18;99297.50;;;20.68;61.97
23281;BME280;11809;56.390;-3.266;2023-07-29T11:37:48;99296.34;;;20.70;61.80
23281;BME280;11809;56.390;-3.266;2023-07-29T11:40:22;99292.34;;;20.74;61.99
23281;BME280;11809;56.390;-3.266;2023-07-29T11:42:51;99292.34;;;20.74;61.71
23281;BME280;11809;56.390;-3.266;2023-07-29T11:45:20;99290.66;;;20.73;61.84
23281;BME280;11809;56.390;-3.266;2023-07-29T11:47:50;99290.53;;;20.75;61.82
23281;BME280;11809;56.390;-3.266;2023-07-29T11:50:18;99301.34;;;20.73;62.02
23281;BME280;11809;56.390;-3.266;2023-07-29T11:52:46;99296.84;;;20.74;61.71
23281;BME280;11809;56.390;-3.266;2023-07-29T11:55:14;99305.16;;;20.71;61.92
23281;BME280;11809;56.390;-3.266;2023-07-29T11:57:43;99303.50;;;20.70;62.04
23281;BME280;11809;56.390;-3.266;2023-07-29T12:00:11;99307.84;;;20.71;62.12
23281;BME280;11809;56.390;-3.266;2023-07-29T12:02:42;99305.34;;;20.69;61.82
23281;BME280;11809;56.390;-3.266;2023-07-29T12:05:13;99307.34;;;20.67;61.73
23281;BME280;11809;56.390;-3.266;2023-07-29T12:07:43;99308.00;;;20.69;61.95
23281;BME280;11809;56.390;-3.266;2023-07-29T12:10:11;99309.00;;;20.68;62.04
23281;BME280;11809;56.390;-3.266;2023-07-29T12:12:46;99313.34;;;20.69;61.97
23281;BME280;11809;56.390;-3.266;2023-07-29T12:15:13;99305.13;;;20.63;62.13
23281;BME280;11809;56.390;-3.266;2023-07-29T12:17:41;99315.66;;;20.64;62.06
23281;BME280;11809;56.390;-3.266;2023-07-29T12:20:09;99315.66;;;20.64;62.42
23281;BME280;11809;56.390;-3.266;2023-07-29T12:22:37;99315.97;;;20.61;62.40
23281;BME280;11809;56.390;-3.266;2023-07-29T12:25:05;99316.13;;;20.60;62.36
23281;BME280;11809;56.390;-3.266;2023-07-29T12:27:33;99318.94;;;20.58;62.33
23281;BME280;11809;56.390;-3.266;2023-07-29T12:30:01;99326.28;;;20.56;62.25
23281;BME280;11809;56.390;-3.266;2023-07-29T12:32:30;99322.09;;;20.53;62.39
23281;BME280;11809;56.390;-3.266;2023-07-29T12:34:57;99323.75;;;20.54;62.58
23281;BME280;11809;56.390;-3.266;2023-07-29T12:37:31;99320.09;;;20.55;62.51
23281;BME280;11809;56.390;-3.266;2023-07-29T12:39:59;99320.94;;;20.56;62.17
23281;BME280;11809;56.390;-3.266;2023-07-29T12:42:26;99315.59;;;20.56;62.18
23281;BME280;11809;56.390;-3.266;2023-07-29T12:44:54;99316.28;;;20.58;62.04
23281;BME280;11809;56.390;-3.266;2023-07-29T12:47:21;99307.59;;;20.56;62.43
23281;BME280;11809;56.390;-3.266;2023-07-29T12:49:48;99308.56;;;20.55;62.12
23281;BME280;11809;56.390;-3.266;2023-07-29T12:52:15;99303.41;;;20.53;62.31
23281;BME280;11809;56.390;-3.266;2023-07-29T12:54:42;99311.41;;;20.53;62.80
23281;BME280;11809;56.390;-3.266;2023-07-29T12:57:11;99307.22;;;20.51;62.40
23281;BME280;11809;56.390;-3.266;2023-07-29T12:59:38;99310.88;;;20.50;62.64
23281;BME280;11809;56.390;-3.266;2023-07-29T13:02:05;99317.91;;;20.51;62.18
23281;BME280;11809;56.390;-3.266;2023-07-29T13:04:33;99313.56;;;20.50;62.11
23281;BME280;11809;56.390;-3.266;2023-07-29T13:07:00;99300.38;;;20.48;62.22
23281;BME280;11809;56.390;-3.266;2023-07-29T13:09:27;99292.50;;;20.47;62.14
23281;BME280;11809;56.390;-3.266;2023-07-29T13:11:55;99306.56;;;20.49;62.38
23281;BME280;11809;56.390;-3.266;2023-07-29T13:14:22;99307.53;;;20.48;62.14